Terminal Aerodrome Forecast
Issued by NWS Wilmington, OH

Current Version | Previous Version | Text Only | Print | Product List | Glossary On
Versions: 1 2 3 4 5 6 7 8 9 10 11 12 13 14 15 16 17 18 19 20 21 22 23
000 FTUS41 KILN 241218 AAA TAFCVG TAF AMD KCVG 241218Z 2412/2518 16004KT P6SM FEW015 OVC150 TEMPO 2412/2414 BKN012 FM241400 14005KT P6SM VCSH OVC050 FM241700 09005KT 4SM SHRA VCTS OVC025CB FM242300 36006KT P6SM VCSH BKN015 FM250700 24008KT 5SM BR VCSH BKN008 FM251200 24007KT P6SM VCSH OVC009=

USA.gov is the U.S. government's official web portal to all federal, state and local government web resources and services.